sensor_id;sensor_type;location;lat;lon;timestamp;P1;durP1;ratioP1;P2;durP2;ratioP2
17592;SDS011;8915;51.760;14.300;2023-05-10T00:00:10;7.07;;;6.30;;
17592;SDS011;8915;51.760;14.300;2023-05-10T00:02:38;9.17;;;6.60;;
17592;SDS011;8915;51.760;14.300;2023-05-10T00:05:05;7.17;;;5.57;;
17592;SDS011;8915;51.760;14.300;2023-05-10T00:07:33;7.27;;;6.10;;
17592;SDS011;8915;51.760;14.300;2023-05-10T00:09:59;10.23;;;6.07;;
17592;SDS011;8915;51.760;14.300;2023-05-10T00:12:26;9.10;;;6.27;;
17592;SDS011;8915;51.760;14.300;2023-05-10T00:14:53;8.13;;;6.20;;
17592;SDS011;8915;51.760;14.300;2023-05-10T00:17:20;7.47;;;6.37;;
17592;SDS011;8915;51.760;14.300;2023-05-10T00:19:46;8.53;;;6.03;;
17592;SDS011;8915;51.760;14.300;2023-05-10T00:22:13;8.97;;;6.10;;
17592;SDS011;8915;51.760;14.300;2023-05-10T00:24:40;12.73;;;6.40;;
17592;SDS011;8915;51.760;14.300;2023-05-10T00:27:06;10.30;;;6.37;;
17592;SDS011;8915;51.760;14.300;2023-05-10T00:29:33;10.50;;;6.97;;
17592;SDS011;8915;51.760;14.300;2023-05-10T00:32:01;9.27;;;6.20;;
17592;SDS011;8915;51.760;14.300;2023-05-10T00:34:28;7.60;;;5.93;;
17592;SDS011;8915;51.760;14.300;2023-05-10T00:36:54;8.27;;;6.33;;
17592;SDS011;8915;51.760;14.300;2023-05-10T00:39:21;12.23;;;6.80;;
17592;SDS011;8915;51.760;14.300;2023-05-10T00:41:48;7.43;;;6.30;;
17592;SDS011;8915;51.760;14.300;2023-05-10T00:44:16;10.90;;;6.77;;
17592;SDS011;8915;51.760;14.300;2023-05-10T00:46:43;7.27;;;6.40;;
17592;SDS011;8915;51.760;14.300;2023-05-10T00:49:12;8.53;;;6.07;;
17592;SDS011;8915;51.760;14.300;2023-05-10T00:51:38;7.60;;;6.80;;
17592;SDS011;8915;51.760;14.300;2023-05-10T00:54:07;7.60;;;6.60;;
17592;SDS011;8915;51.760;14.300;2023-05-10T00:56:34;8.47;;;6.60;;
17592;SDS011;8915;51.760;14.300;2023-05-10T00:59:00;7.90;;;6.57;;
17592;SDS011;8915;51.760;14.300;2023-05-10T01:01:27;9.37;;;6.90;;
17592;SDS011;8915;51.760;14.300;2023-05-10T01:03:54;7.87;;;6.87;;
17592;SDS011;8915;51.760;14.300;2023-05-10T01:06:23;9.60;;;6.37;;
17592;SDS011;8915;51.760;14.300;2023-05-10T01:08:51;9.07;;;7.17;;
17592;SDS011;8915;51.760;14.300;2023-05-10T01:11:17;10.50;;;6.93;;
17592;SDS011;8915;51.760;14.300;2023-05-10T01:13:43;7.37;;;6.33;;
17592;SDS011;8915;51.760;14.300;2023-05-10T01:16:17;9.40;;;7.07;;
17592;SDS011;8915;51.760;14.300;2023-05-10T01:18:43;10.83;;;7.10;;
17592;SDS011;8915;51.760;14.300;2023-05-10T01:21:14;8.97;;;7.53;;
17592;SDS011;8915;51.760;14.300;2023-05-10T01:27:02;7.57;;;6.73;;
17592;SDS011;8915;51.760;14.300;2023-05-10T01:29:59;10.90;;;7.60;;
17592;SDS011;8915;51.760;14.300;2023-05-10T01:32:50;9.13;;;7.27;;
17592;SDS011;8915;51.760;14.300;2023-05-10T01:35:26;9.23;;;7.43;;
17592;SDS011;8915;51.760;14.300;2023-05-10T01:37:59;11.93;;;7.50;;
17592;SDS011;8915;51.760;14.300;2023-05-10T01:40:35;10.20;;;7.97;;
17592;SDS011;8915;51.760;14.300;2023-05-10T01:43:07;9.60;;;7.70;;
17592;SDS011;8915;51.760;14.300;2023-05-10T01:45:37;10.13;;;8.13;;
17592;SDS011;8915;51.760;14.300;2023-05-10T01:48:10;8.67;;;7.77;;
17592;SDS011;8915;51.760;14.300;2023-05-10T01:50:38;10.63;;;7.50;;
17592;SDS011;8915;51.760;14.300;2023-05-10T01:53:08;10.23;;;8.00;;
17592;SDS011;8915;51.760;14.300;2023-05-10T01:55:39;9.10;;;7.63;;
17592;SDS011;8915;51.760;14.300;2023-05-10T01:58:13;12.80;;;7.47;;
17592;SDS011;8915;51.760;14.300;2023-05-10T02:00:42;11.83;;;7.70;;
17592;SDS011;8915;51.760;14.300;2023-05-10T02:03:12;10.53;;;7.17;;
17592;SDS011;8915;51.760;14.300;2023-05-10T02:05:41;11.27;;;7.60;;
17592;SDS011;8915;51.760;14.300;2023-05-10T02:08:09;12.03;;;8.37;;
17592;SDS011;8915;51.760;14.300;2023-05-10T02:10:36;10.20;;;7.80;;
17592;SDS011;8915;51.760;14.300;2023-05-10T02:13:04;8.83;;;7.73;;
17592;SDS011;8915;51.760;14.300;2023-05-10T02:15:33;10.00;;;7.70;;
17592;SDS011;8915;51.760;14.300;2023-05-10T02:18:01;9.57;;;7.27;;
17592;SDS011;8915;51.760;14.300;2023-05-10T02:20:30;11.53;;;6.80;;
17592;SDS011;8915;51.760;14.300;2023-05-10T02:22:58;9.80;;;7.50;;
17592;SDS011;8915;51.760;14.300;2023-05-10T02:25:27;9.37;;;7.07;;
17592;SDS011;8915;51.760;14.300;2023-05-10T02:27:56;10.23;;;7.50;;
17592;SDS011;8915;51.760;14.300;2023-05-10T02:30:23;8.67;;;7.13;;
17592;SDS011;8915;51.760;14.300;2023-05-10T02:32:51;9.97;;;7.00;;
17592;SDS011;8915;51.760;14.300;2023-05-10T02:35:17;11.93;;;6.43;;
17592;SDS011;8915;51.760;14.300;2023-05-10T02:37:46;11.07;;;7.53;;
17592;SDS011;8915;51.760;14.300;2023-05-10T02:40:13;10.63;;;7.70;;
17592;SDS011;8915;51.760;14.300;2023-05-10T02:42:42;9.30;;;7.10;;
17592;SDS011;8915;51.760;14.300;2023-05-10T02:45:11;8.90;;;7.37;;
17592;SDS011;8915;51.760;14.300;2023-05-10T02:47:41;7.87;;;6.50;;
17592;SDS011;8915;51.760;14.300;2023-05-10T02:50:08;9.17;;;7.20;;
17592;SDS011;8915;51.760;14.300;2023-05-10T02:52:38;8.47;;;6.40;;
17592;SDS011;8915;51.760;14.300;2023-05-10T02:55:08;9.80;;;7.13;;
17592;SDS011;8915;51.760;14.300;2023-05-10T02:57:38;10.60;;;6.77;;
17592;SDS011;8915;51.760;14.300;2023-05-10T03:00:09;8.53;;;7.47;;
17592;SDS011;8915;51.760;14.300;2023-05-10T03:02:36;7.97;;;6.47;;
17592;SDS011;8915;51.760;14.300;2023-05-10T03:05:03;9.90;;;7.33;;
17592;SDS011;8915;51.760;14.300;2023-05-10T03:07:29;9.67;;;6.97;;
17592;SDS011;8915;51.760;14.300;2023-05-10T03:09:57;10.00;;;7.47;;
17592;SDS011;8915;51.760;14.300;2023-05-10T03:12:27;10.00;;;6.63;;
17592;SDS011;8915;51.760;14.300;2023-05-10T03:15:07;11.30;;;7.33;;
17592;SDS011;8915;51.760;14.300;2023-05-10T03:17:41;10.33;;;6.40;;
17592;SDS011;8915;51.760;14.300;2023-05-10T03:20:16;8.90;;;6.40;;
17592;SDS011;8915;51.760;14.300;2023-05-10T03:22:50;9.17;;;5.97;;
17592;SDS011;8915;51.760;14.300;2023-05-10T03:25:19;10.57;;;6.53;;
17592;SDS011;8915;51.760;14.300;2023-05-10T03:27:48;7.53;;;6.10;;
17592;SDS011;8915;51.760;14.300;2023-05-10T03:30:16;7.67;;;5.87;;
17592;SDS011;8915;51.760;14.300;2023-05-10T03:32:43;8.73;;;5.97;;
17592;SDS011;8915;51.760;14.300;2023-05-10T03:35:11;8.00;;;6.47;;
17592;SDS011;8915;51.760;14.300;2023-05-10T03:37:38;11.17;;;6.93;;
17592;SDS011;8915;51.760;14.300;2023-05-10T03:40:05;8.70;;;6.40;;
17592;SDS011;8915;51.760;14.300;2023-05-10T03:42:35;8.00;;;6.07;;
17592;SDS011;8915;51.760;14.300;2023-05-10T03:45:03;8.93;;;5.67;;
17592;SDS011;8915;51.760;14.300;2023-05-10T03:47:29;6.97;;;5.80;;
17592;SDS011;8915;51.760;14.300;2023-05-10T03:49:57;7.03;;;5.83;;
17592;SDS011;8915;51.760;14.300;2023-05-10T03:52:23;7.40;;;5.27;;
17592;SDS011;8915;51.760;14.300;2023-05-10T03:54:50;7.20;;;5.20;;
17592;SDS011;8915;51.760;14.300;2023-05-10T03:57:17;10.60;;;6.13;;
17592;SDS011;8915;51.760;14.300;2023-05-10T03:59:43;7.17;;;5.80;;
17592;SDS011;8915;51.760;14.300;2023-05-10T04:02:11;8.87;;;5.60;;
17592;SDS011;8915;51.760;14.300;2023-05-10T04:04:37;7.67;;;5.73;;
17592;SDS011;8915;51.760;14.300;2023-05-10T04:07:04;7.03;;;5.90;;
17592;SDS011;8915;51.760;14.300;2023-05-10T04:09:30;7.50;;;5.40;;
17592;SDS011;8915;51.760;14.300;2023-05-10T04:11:58;7.97;;;5.57;;
17592;SDS011;8915;51.760;14.300;2023-05-10T04:14:25;10.43;;;5.50;;
17592;SDS011;8915;51.760;14.300;2023-05-10T04:16:51;10.97;;;5.33;;
17592;SDS011;8915;51.760;14.300;2023-05-10T04:19:19;7.07;;;5.77;;
17592;SDS011;8915;51.760;14.300;2023-05-10T04:21:45;6.40;;;5.33;;
17592;SDS011;8915;51.760;14.300;2023-05-10T04:24:11;8.90;;;5.50;;
17592;SDS011;8915;51.760;14.300;2023-05-10T04:26:38;7.57;;;5.90;;
17592;SDS011;8915;51.760;14.300;2023-05-10T04:29:05;7.63;;;5.70;;
17592;SDS011;8915;51.760;14.300;2023-05-10T04:31:31;11.13;;;6.17;;
17592;SDS011;8915;51.760;14.300;2023-05-10T04:33:58;11.63;;;5.27;;
17592;SDS011;8915;51.760;14.300;2023-05-10T04:36:26;7.87;;;5.50;;
17592;SDS011;8915;51.760;14.300;2023-05-10T04:38:52;6.10;;;5.23;;
17592;SDS011;8915;51.760;14.300;2023-05-10T04:41:18;8.73;;;5.63;;
17592;SDS011;8915;51.760;14.300;2023-05-10T04:43:45;10.80;;;5.60;;
17592;SDS011;8915;51.760;14.300;2023-05-10T04:46:14;6.90;;;4.93;;
17592;SDS011;8915;51.760;14.300;2023-05-10T04:48:40;10.30;;;5.40;;
17592;SDS011;8915;51.760;14.300;2023-05-10T04:51:06;9.67;;;5.27;;
17592;SDS011;8915;51.760;14.300;2023-05-10T04:53:34;9.77;;;5.07;;
17592;SDS011;8915;51.760;14.300;2023-05-10T04:56:01;6.03;;;4.93;;
17592;SDS011;8915;51.760;14.300;2023-05-10T04:58:28;5.73;;;4.97;;
17592;SDS011;8915;51.760;14.300;2023-05-10T05:00:54;11.03;;;4.90;;
17592;SDS011;8915;51.760;14.300;2023-05-10T05:03:21;9.33;;;5.20;;
17592;SDS011;8915;51.760;14.300;2023-05-10T05:05:47;7.77;;;4.70;;
17592;SDS011;8915;51.760;14.300;2023-05-10T05:08:13;5.83;;;4.70;;
17592;SDS011;8915;51.760;14.300;2023-05-10T05:10:41;5.57;;;4.80;;
17592;SDS011;8915;51.760;14.300;2023-05-10T05:13:08;8.90;;;4.67;;
17592;SDS011;8915;51.760;14.300;2023-05-10T05:15:34;6.50;;;4.57;;
17592;SDS011;8915;51.760;14.300;2023-05-10T05:18:00;6.57;;;4.57;;
17592;SDS011;8915;51.760;14.300;2023-05-10T05:20:27;7.73;;;4.90;;
17592;SDS011;8915;51.760;14.300;2023-05-10T05:22:53;6.93;;;5.10;;
17592;SDS011;8915;51.760;14.300;2023-05-10T05:25:20;8.43;;;5.10;;
17592;SDS011;8915;51.760;14.300;2023-05-10T05:27:47;12.67;;;4.43;;
17592;SDS011;8915;51.760;14.300;2023-05-10T05:30:14;4.50;;;4.10;;
17592;SDS011;8915;51.760;14.300;2023-05-10T05:32:40;8.20;;;4.60;;
17592;SDS011;8915;51.760;14.300;2023-05-10T05:35:07;6.40;;;4.10;;
17592;SDS011;8915;51.760;14.300;2023-05-10T05:37:34;9.63;;;4.30;;
17592;SDS011;8915;51.760;14.300;2023-05-10T05:40:00;6.97;;;4.53;;
17592;SDS011;8915;51.760;14.300;2023-05-10T05:42:26;8.33;;;4.60;;
17592;SDS011;8915;51.760;14.300;2023-05-10T05:44:54;7.60;;;4.43;;
17592;SDS011;8915;51.760;14.300;2023-05-10T05:47:21;7.67;;;4.40;;
17592;SDS011;8915;51.760;14.300;2023-05-10T05:49:47;4.80;;;4.13;;
17592;SDS011;8915;51.760;14.300;2023-05-10T05:52:14;5.97;;;4.40;;
17592;SDS011;8915;51.760;14.300;2023-05-10T05:54:40;5.87;;;4.20;;
17592;SDS011;8915;51.760;14.300;2023-05-10T05:57:06;5.30;;;4.07;;
17592;SDS011;8915;51.760;14.300;2023-05-10T05:59:33;5.80;;;4.13;;
17592;SDS011;8915;51.760;14.300;2023-05-10T06:02:01;5.50;;;3.97;;
17592;SDS011;8915;51.760;14.300;2023-05-10T06:04:27;7.03;;;3.70;;
17592;SDS011;8915;51.760;14.300;2023-05-10T06:06:54;6.63;;;3.70;;
17592;SDS011;8915;51.760;14.300;2023-05-10T06:09:20;5.23;;;3.30;;
17592;SDS011;8915;51.760;14.300;2023-05-10T06:11:48;4.40;;;3.70;;
17592;SDS011;8915;51.760;14.300;2023-05-10T06:14:15;8.50;;;3.53;;
17592;SDS011;8915;51.760;14.300;2023-05-10T06:16:41;4.83;;;3.80;;
17592;SDS011;8915;51.760;14.300;2023-05-10T06:19:09;5.27;;;3.40;;
17592;SDS011;8915;51.760;14.300;2023-05-10T06:21:35;4.03;;;3.13;;
17592;SDS011;8915;51.760;14.300;2023-05-10T06:24:02;4.97;;;3.47;;
17592;SDS011;8915;51.760;14.300;2023-05-10T06:26:28;19.03;;;3.30;;
17592;SDS011;8915;51.760;14.300;2023-05-10T06:28:55;5.33;;;3.10;;
17592;SDS011;8915;51.760;14.300;2023-05-10T06:31:21;5.77;;;3.10;;
17592;SDS011;8915;51.760;14.300;2023-05-10T06:33:47;3.90;;;2.83;;
17592;SDS011;8915;51.760;14.300;2023-05-10T06:36:15;6.53;;;3.10;;
17592;SDS011;8915;51.760;14.300;2023-05-10T06:38:41;5.60;;;3.30;;
17592;SDS011;8915;51.760;14.300;2023-05-10T06:41:08;5.43;;;2.90;;
17592;SDS011;8915;51.760;14.300;2023-05-10T06:43:34;3.43;;;2.70;;
17592;SDS011;8915;51.760;14.300;2023-05-10T06:46:04;7.40;;;2.97;;
17592;SDS011;8915;51.760;14.300;2023-05-10T06:48:31;7.20;;;2.90;;
17592;SDS011;8915;51.760;14.300;2023-05-10T06:50:58;5.90;;;3.03;;
17592;SDS011;8915;51.760;14.300;2023-05-10T06:53:25;4.37;;;2.83;;
17592;SDS011;8915;51.760;14.300;2023-05-10T06:55:52;5.40;;;2.70;;
17592;SDS011;8915;51.760;14.300;2023-05-10T06:58:18;5.27;;;2.73;;
17592;SDS011;8915;51.760;14.300;2023-05-10T07:00:45;2.93;;;2.60;;
17592;SDS011;8915;51.760;14.300;2023-05-10T07:03:12;4.30;;;2.60;;
17592;SDS011;8915;51.760;14.300;2023-05-10T07:05:38;4.17;;;2.93;;
17592;SDS011;8915;51.760;14.300;2023-05-10T07:08:05;4.73;;;2.87;;
17592;SDS011;8915;51.760;14.300;2023-05-10T07:10:32;4.43;;;2.60;;
17592;SDS011;8915;51.760;14.300;2023-05-10T07:12:59;6.80;;;2.90;;
17592;SDS011;8915;51.760;14.300;2023-05-10T07:15:26;6.33;;;2.90;;
17592;SDS011;8915;51.760;14.300;2023-05-10T07:17:53;4.40;;;3.10;;
17592;SDS011;8915;51.760;14.300;2023-05-10T07:20:19;4.27;;;2.70;;
17592;SDS011;8915;51.760;14.300;2023-05-10T07:22:45;6.90;;;2.93;;
17592;SDS011;8915;51.760;14.300;2023-05-10T07:25:12;3.73;;;2.60;;
17592;SDS011;8915;51.760;14.300;2023-05-10T07:27:39;3.90;;;2.80;;
17592;SDS011;8915;51.760;14.300;2023-05-10T07:30:06;4.20;;;2.80;;
17592;SDS011;8915;51.760;14.300;2023-05-10T07:32:33;4.77;;;2.40;;
17592;SDS011;8915;51.760;14.300;2023-05-10T07:35:00;5.07;;;2.83;;
17592;SDS011;8915;51.760;14.300;2023-05-10T07:37:26;9.13;;;2.60;;
17592;SDS011;8915;51.760;14.300;2023-05-10T07:39:52;3.23;;;2.30;;
17592;SDS011;8915;51.760;14.300;2023-05-10T07:42:19;8.63;;;2.40;;
17592;SDS011;8915;51.760;14.300;2023-05-10T07:44:46;3.13;;;2.63;;
17592;SDS011;8915;51.760;14.300;2023-05-10T07:47:13;5.37;;;2.53;;
17592;SDS011;8915;51.760;14.300;2023-05-10T07:49:39;4.27;;;2.50;;
17592;SDS011;8915;51.760;14.300;2023-05-10T07:52:06;4.83;;;2.90;;
17592;SDS011;8915;51.760;14.300;2023-05-10T07:54:32;3.83;;;2.50;;
17592;SDS011;8915;51.760;14.300;2023-05-10T07:56:59;7.13;;;2.53;;
17592;SDS011;8915;51.760;14.300;2023-05-10T07:59:25;4.97;;;2.40;;
17592;SDS011;8915;51.760;14.300;2023-05-10T08:01:53;8.37;;;2.30;;
17592;SDS011;8915;51.760;14.300;2023-05-10T08:04:19;4.97;;;2.20;;
17592;SDS011;8915;51.760;14.300;2023-05-10T08:06:46;9.43;;;2.20;;
17592;SDS011;8915;51.760;14.300;2023-05-10T08:09:12;6.53;;;2.27;;
17592;SDS011;8915;51.760;14.300;2023-05-10T08:11:39;5.73;;;2.20;;
17592;SDS011;8915;51.760;14.300;2023-05-10T08:14:05;5.83;;;2.40;;
17592;SDS011;8915;51.760;14.300;2023-05-10T08:16:32;7.70;;;2.17;;
17592;SDS011;8915;51.760;14.300;2023-05-10T08:19:00;4.93;;;1.87;;
17592;SDS011;8915;51.760;14.300;2023-05-10T08:21:27;2.03;;;1.80;;
17592;SDS011;8915;51.760;14.300;2023-05-10T08:23:53;4.97;;;2.20;;
17592;SDS011;8915;51.760;14.300;2023-05-10T08:26:19;3.87;;;2.80;;
17592;SDS011;8915;51.760;14.300;2023-05-10T08:28:46;3.30;;;2.20;;
17592;SDS011;8915;51.760;14.300;2023-05-10T08:31:12;4.90;;;2.13;;
17592;SDS011;8915;51.760;14.300;2023-05-10T08:33:39;4.10;;;2.07;;
17592;SDS011;8915;51.760;14.300;2023-05-10T08:36:07;10.13;;;2.73;;
17592;SDS011;8915;51.760;14.300;2023-05-10T08:38:33;8.53;;;2.43;;
17592;SDS011;8915;51.760;14.300;2023-05-10T08:40:59;8.13;;;2.30;;
17592;SDS011;8915;51.760;14.300;2023-05-10T08:43:28;11.20;;;2.53;;
17592;SDS011;8915;51.760;14.300;2023-05-10T08:45:55;5.97;;;1.90;;
17592;SDS011;8915;51.760;14.300;2023-05-10T08:48:22;10.00;;;2.30;;
17592;SDS011;8915;51.760;14.300;2023-05-10T08:50:52;6.13;;;1.90;;
17592;SDS011;8915;51.760;14.300;2023-05-10T08:53:21;6.20;;;2.10;;
17592;SDS011;8915;51.760;14.300;2023-05-10T08:55:50;2.87;;;2.00;;
17592;SDS011;8915;51.760;14.300;2023-05-10T08:58:17;8.13;;;2.00;;
17592;SDS011;8915;51.760;14.300;2023-05-10T09:00:45;3.90;;;2.00;;
17592;SDS011;8915;51.760;14.300;2023-05-10T09:03:12;3.83;;;2.30;;
17592;SDS011;8915;51.760;14.300;2023-05-10T09:05:39;7.87;;;2.60;;
17592;SDS011;8915;51.760;14.300;2023-05-10T09:08:06;6.93;;;2.20;;
17592;SDS011;8915;51.760;14.300;2023-05-10T09:10:36;6.13;;;2.40;;
17592;SDS011;8915;51.760;14.300;2023-05-10T09:13:03;5.90;;;2.00;;
17592;SDS011;8915;51.760;14.300;2023-05-10T09:15:30;7.13;;;2.17;;
17592;SDS011;8915;51.760;14.300;2023-05-10T09:17:56;6.33;;;2.00;;
17592;SDS011;8915;51.760;14.300;2023-05-10T09:20:24;6.17;;;2.20;;
17592;SDS011;8915;51.760;14.300;2023-05-10T09:22:50;8.23;;;2.00;;
17592;SDS011;8915;51.760;14.300;2023-05-10T09:25:17;3.77;;;1.97;;
17592;SDS011;8915;51.760;14.300;2023-05-10T09:27:45;14.87;;;2.80;;
17592;SDS011;8915;51.760;14.300;2023-05-10T09:30:15;11.43;;;2.20;;
17592;SDS011;8915;51.760;14.300;2023-05-10T09:32:42;7.17;;;2.13;;
17592;SDS011;8915;51.760;14.300;2023-05-10T09:35:10;4.60;;;2.63;;
17592;SDS011;8915;51.760;14.300;2023-05-10T09:37:39;2.77;;;2.20;;
17592;SDS011;8915;51.760;14.300;2023-05-10T09:40:07;11.03;;;2.13;;
17592;SDS011;8915;51.760;14.300;2023-05-10T09:42:37;4.20;;;1.90;;
17592;SDS011;8915;51.760;14.300;2023-05-10T09:45:06;11.23;;;2.57;;
17592;SDS011;8915;51.760;14.300;2023-05-10T09:47:33;4.47;;;2.00;;
17592;SDS011;8915;51.760;14.300;2023-05-10T09:50:00;7.67;;;2.10;;
17592;SDS011;8915;51.760;14.300;2023-05-10T09:52:29;4.13;;;2.03;;
17592;SDS011;8915;51.760;14.300;2023-05-10T09:54:57;3.53;;;1.77;;
17592;SDS011;8915;51.760;14.300;2023-05-10T09:57:23;2.73;;;1.93;;
17592;SDS011;8915;51.760;14.300;2023-05-10T09:59:50;3.87;;;2.00;;
17592;SDS011;8915;51.760;14.300;2023-05-10T10:02:20;10.43;;;2.40;;
17592;SDS011;8915;51.760;14.300;2023-05-10T10:04:48;3.97;;;1.90;;
17592;SDS011;8915;51.760;14.300;2023-05-10T10:07:15;5.27;;;2.00;;
17592;SDS011;8915;51.760;14.300;2023-05-10T10:09:48;7.37;;;2.23;;
17592;SDS011;8915;51.760;14.300;2023-05-10T10:12:15;3.23;;;2.00;;
17592;SDS011;8915;51.760;14.300;2023-05-10T10:14:42;4.40;;;1.83;;
17592;SDS011;8915;51.760;14.300;2023-05-10T10:17:09;2.53;;;2.03;;
17592;SDS011;8915;51.760;14.300;2023-05-10T10:19:37;7.00;;;2.20;;
17592;SDS011;8915;51.760;14.300;2023-05-10T10:22:03;3.43;;;2.00;;
17592;SDS011;8915;51.760;14.300;2023-05-10T10:24:30;8.00;;;2.30;;
17592;SDS011;8915;51.760;14.300;2023-05-10T10:26:58;5.50;;;2.00;;
17592;SDS011;8915;51.760;14.300;2023-05-10T10:29:32;5.13;;;2.00;;
17592;SDS011;8915;51.760;14.300;2023-05-10T10:32:07;2.63;;;2.00;;
17592;SDS011;8915;51.760;14.300;2023-05-10T10:34:44;3.90;;;2.23;;
17592;SDS011;8915;51.760;14.300;2023-05-10T10:37:11;2.77;;;1.80;;
17592;SDS011;8915;51.760;14.300;2023-05-10T10:39:37;4.43;;;2.07;;
17592;SDS011;8915;51.760;14.300;2023-05-10T10:42:04;4.13;;;2.00;;
17592;SDS011;8915;51.760;14.300;2023-05-10T10:44:34;5.03;;;1.70;;
17592;SDS011;8915;51.760;14.300;2023-05-10T10:47:07;5.80;;;2.50;;
17592;SDS011;8915;51.760;14.300;2023-05-10T10:49:51;4.00;;;2.10;;
17592;SDS011;8915;51.760;14.300;2023-05-10T10:52:23;4.80;;;1.93;;
17592;SDS011;8915;51.760;14.300;2023-05-10T10:54:54;5.03;;;1.83;;
17592;SDS011;8915;51.760;14.300;2023-05-10T10:57:25;5.10;;;1.97;;
17592;SDS011;8915;51.760;14.300;2023-05-10T10:59:53;3.67;;;2.10;;
17592;SDS011;8915;51.760;14.300;2023-05-10T11:02:56;3.13;;;1.67;;
17592;SDS011;8915;51.760;14.300;2023-05-10T11:08:07;5.83;;;2.00;;
17592;SDS011;8915;51.760;14.300;2023-05-10T11:10:36;3.40;;;1.90;;
17592;SDS011;8915;51.760;14.300;2023-05-10T11:13:03;4.70;;;1.90;;
17592;SDS011;8915;51.760;14.300;2023-05-10T11:15:34;5.17;;;2.23;;
17592;SDS011;8915;51.760;14.300;2023-05-10T11:18:16;5.93;;;2.37;;
17592;SDS011;8915;51.760;14.300;2023-05-10T11:20:43;3.10;;;1.93;;
17592;SDS011;8915;51.760;14.300;2023-05-10T11:23:12;8.73;;;2.00;;
17592;SDS011;8915;51.760;14.300;2023-05-10T11:25:41;7.77;;;2.10;;
17592;SDS011;8915;51.760;14.300;2023-05-10T11:28:09;5.57;;;2.03;;
17592;SDS011;8915;51.760;14.300;2023-05-10T11:30:38;5.63;;;1.90;;
17592;SDS011;8915;51.760;14.300;2023-05-10T11:33:05;3.87;;;2.10;;
17592;SDS011;8915;51.760;14.300;2023-05-10T11:35:36;2.40;;;1.60;;
17592;SDS011;8915;51.760;14.300;2023-05-10T11:38:04;5.37;;;1.80;;
17592;SDS011;8915;51.760;14.300;2023-05-10T11:40:31;2.97;;;1.80;;
17592;SDS011;8915;51.760;14.300;2023-05-10T11:42:58;1.97;;;1.70;;
17592;SDS011;8915;51.760;14.300;2023-05-10T11:45:25;3.40;;;2.00;;
17592;SDS011;8915;51.760;14.300;2023-05-10T11:47:54;2.83;;;1.80;;
17592;SDS011;8915;51.760;14.300;2023-05-10T11:50:21;3.13;;;1.60;;
17592;SDS011;8915;51.760;14.300;2023-05-10T11:52:50;5.60;;;1.97;;
17592;SDS011;8915;51.760;14.300;2023-05-10T11:55:16;2.53;;;1.53;;
17592;SDS011;8915;51.760;14.300;2023-05-10T11:57:43;3.83;;;1.50;;
17592;SDS011;8915;51.760;14.300;2023-05-10T12:00:11;9.70;;;1.90;;
17592;SDS011;8915;51.760;14.300;2023-05-10T12:02:38;4.23;;;1.70;;
17592;SDS011;8915;51.760;14.300;2023-05-10T12:05:06;4.67;;;1.87;;
17592;SDS011;8915;51.760;14.300;2023-05-10T12:07:34;3.27;;;1.93;;
17592;SDS011;8915;51.760;14.300;2023-05-10T12:10:07;2.07;;;1.40;;
17592;SDS011;8915;51.760;14.300;2023-05-10T12:12:35;3.57;;;1.63;;
17592;SDS011;8915;51.760;14.300;2023-05-10T12:15:03;1.63;;;1.52;;
17592;SDS011;8915;51.760;14.300;2023-05-10T12:17:31;3.23;;;1.67;;
17592;SDS011;8915;51.760;14.300;2023-05-10T12:19:58;2.20;;;1.70;;
17592;SDS011;8915;51.760;14.300;2023-05-10T12:22:26;2.78;;;1.85;;
17592;SDS011;8915;51.760;14.300;2023-05-10T12:24:53;1.90;;;1.52;;
17592;SDS011;8915;51.760;14.300;2023-05-10T12:27:19;2.38;;;1.77;;
17592;SDS011;8915;51.760;14.300;2023-05-10T12:29:45;2.20;;;1.52;;
17592;SDS011;8915;51.760;14.300;2023-05-10T12:32:14;5.18;;;1.42;;
17592;SDS011;8915;51.760;14.300;2023-05-10T12:34:40;9.00;;;1.80;;
17592;SDS011;8915;51.760;14.300;2023-05-10T12:37:06;2.25;;;1.80;;
17592;SDS011;8915;51.760;14.300;2023-05-10T12:39:40;2.95;;;1.90;;
17592;SDS011;8915;51.760;14.300;2023-05-10T12:42:07;3.63;;;1.88;;
17592;SDS011;8915;51.760;14.300;2023-05-10T12:44:34;3.45;;;1.60;;
17592;SDS011;8915;51.760;14.300;2023-05-10T12:47:00;6.28;;;1.80;;
17592;SDS011;8915;51.760;14.300;2023-05-10T12:49:26;4.53;;;1.92;;
17592;SDS011;8915;51.760;14.300;2023-05-10T12:51:53;3.95;;;2.10;;
17592;SDS011;8915;51.760;14.300;2023-05-10T12:54:19;3.30;;;1.95;;
17592;SDS011;8915;51.760;14.300;2023-05-10T12:56:47;3.08;;;1.90;;
17592;SDS011;8915;51.760;14.300;2023-05-10T12:59:13;4.13;;;1.75;;
17592;SDS011;8915;51.760;14.300;2023-05-10T13:01:39;6.03;;;2.38;;
17592;SDS011;8915;51.760;14.300;2023-05-10T13:04:06;7.93;;;2.38;;
17592;SDS011;8915;51.760;14.300;2023-05-10T13:06:32;4.63;;;1.77;;
17592;SDS011;8915;51.760;14.300;2023-05-10T13:08:58;3.38;;;2.08;;
17592;SDS011;8915;51.760;14.300;2023-05-10T13:11:25;6.43;;;1.95;;
17592;SDS011;8915;51.760;14.300;2023-05-10T13:13:53;4.45;;;1.90;;
17592;SDS011;8915;51.760;14.300;2023-05-10T13:16:19;1.80;;;1.40;;
17592;SDS011;8915;51.760;14.300;2023-05-10T13:18:45;26.55;;;2.35;;
17592;SDS011;8915;51.760;14.300;2023-05-10T13:21:12;2.40;;;1.83;;
17592;SDS011;8915;51.760;14.300;2023-05-10T13:23:38;1.80;;;1.70;;
17592;SDS011;8915;51.760;14.300;2023-05-10T13:26:05;4.68;;;2.00;;
17592;SDS011;8915;51.760;14.300;2023-05-10T13:28:31;4.10;;;1.73;;
17592;SDS011;8915;51.760;14.300;2023-05-10T13:30:59;1.92;;;1.60;;
17592;SDS011;8915;51.760;14.300;2023-05-10T13:33:25;5.15;;;1.83;;
17592;SDS011;8915;51.760;14.300;2023-05-10T13:35:52;4.30;;;1.73;;
17592;SDS011;8915;51.760;14.300;2023-05-10T13:38:18;3.10;;;1.95;;
17592;SDS011;8915;51.760;14.300;2023-05-10T13:40:44;3.90;;;1.92;;
17592;SDS011;8915;51.760;14.300;2023-05-10T13:43:11;4.10;;;1.90;;
17592;SDS011;8915;51.760;14.300;2023-05-10T13:45:37;7.07;;;1.90;;
17592;SDS011;8915;51.760;14.300;2023-05-10T13:48:05;5.80;;;2.08;;
17592;SDS011;8915;51.760;14.300;2023-05-10T13:50:31;2.35;;;1.80;;
17592;SDS011;8915;51.760;14.300;2023-05-10T13:52:58;2.45;;;1.75;;
17592;SDS011;8915;51.760;14.300;2023-05-10T13:55:24;3.28;;;2.03;;
17592;SDS011;8915;51.760;14.300;2023-05-10T13:57:50;4.22;;;2.10;;
17592;SDS011;8915;51.760;14.300;2023-05-10T14:00:17;3.33;;;1.85;;
17592;SDS011;8915;51.760;14.300;2023-05-10T14:02:43;2.30;;;1.90;;
17592;SDS011;8915;51.760;14.300;2023-05-10T14:05:11;3.03;;;1.50;;
17592;SDS011;8915;51.760;14.300;2023-05-10T14:07:38;3.90;;;1.90;;
17592;SDS011;8915;51.760;14.300;2023-05-10T14:10:05;7.38;;;2.20;;
17592;SDS011;8915;51.760;14.300;2023-05-10T14:12:31;7.03;;;1.85;;
17592;SDS011;8915;51.760;14.300;2023-05-10T14:14:58;6.03;;;2.13;;
17592;SDS011;8915;51.760;14.300;2023-05-10T14:17:24;1.98;;;1.60;;
17592;SDS011;8915;51.760;14.300;2023-05-10T14:19:50;2.22;;;1.80;;
17592;SDS011;8915;51.760;14.300;2023-05-10T14:22:18;5.35;;;2.00;;
17592;SDS011;8915;51.760;14.300;2023-05-10T14:24:44;2.10;;;1.58;;
17592;SDS011;8915;51.760;14.300;2023-05-10T14:27:12;4.22;;;1.80;;
17592;SDS011;8915;51.760;14.300;2023-05-10T14:29:38;2.67;;;1.60;;
17592;SDS011;8915;51.760;14.300;2023-05-10T14:32:04;3.25;;;1.90;;
17592;SDS011;8915;51.760;14.300;2023-05-10T14:34:31;2.65;;;2.00;;
17592;SDS011;8915;51.760;14.300;2023-05-10T14:36:57;1.95;;;1.75;;
17592;SDS011;8915;51.760;14.300;2023-05-10T14:39:25;4.68;;;1.80;;
17592;SDS011;8915;51.760;14.300;2023-05-10T14:41:54;2.95;;;1.55;;
17592;SDS011;8915;51.760;14.300;2023-05-10T14:44:20;2.53;;;1.70;;
17592;SDS011;8915;51.760;14.300;2023-05-10T14:46:47;3.28;;;1.45;;
17592;SDS011;8915;51.760;14.300;2023-05-10T14:49:14;4.22;;;1.80;;
17592;SDS011;8915;51.760;14.300;2023-05-10T14:51:41;4.03;;;1.88;;
17592;SDS011;8915;51.760;14.300;2023-05-10T14:54:07;2.80;;;1.80;;